KAIK/AIK METAR and TAF weather

Enter ICAO airport designator
Station Type Date Time Source
KAIK METAR 2019/02/23 16:55 UTC NOAA

KAIK 231655Z AUTO 04007KT 2SM BR OVC002 07/07 A3025 RMK AO2


Station Type Date Time Source
KAIK Decoded METAR 2019/02/23 16:55 UTC NOAA

Station name not available
Feb 23, 2019 - 11:55 AM EST / 2019.02.23 1655 UTC
Wind: from the NE (040 degrees) at 8 MPH (7 KT):0
Visibility: 2 mile(s):0
Sky conditions: overcast
Weather: mist
Temperature: 44 F (7 C)
Dew Point: 44 F (7 C)
Relative Humidity: 100%
Pressure (altimeter): 30.25 in. Hg (1024 hPa)
ob: KAIK 231655Z AUTO 04007KT 2SM BR OVC002 07/07 A3025 RMK AO2
cycle: 17

Station Type Date Time Source
KAIK TAF UTC NOAA

Error!


Example: see airport list